sensor_id;sensor_type;location;lat;lon;timestamp;P1;durP1;ratioP1;P2;durP2;ratioP2
2019;SDS011;1014;51.960;8.542;2023-03-31T00:01:59;18.43;;;17.13;;
2019;SDS011;1014;51.960;8.542;2023-03-31T00:04:26;18.37;;;17.37;;
2019;SDS011;1014;51.960;8.542;2023-03-31T00:06:56;19.00;;;17.70;;
2019;SDS011;1014;51.960;8.542;2023-03-31T00:09:23;17.87;;;16.87;;
2019;SDS011;1014;51.960;8.542;2023-03-31T00:11:53;18.10;;;17.10;;
2019;SDS011;1014;51.960;8.542;2023-03-31T00:14:21;18.23;;;17.33;;
2019;SDS011;1014;51.960;8.542;2023-03-31T00:16:49;18.40;;;17.20;;
2019;SDS011;1014;51.960;8.542;2023-03-31T00:19:16;19.50;;;18.10;;
2019;SDS011;1014;51.960;8.542;2023-03-31T00:21:44;19.03;;;17.97;;
2019;SDS011;1014;51.960;8.542;2023-03-31T00:24:12;18.50;;;17.30;;
2019;SDS011;1014;51.960;8.542;2023-03-31T00:26:39;18.00;;;17.00;;
2019;SDS011;1014;51.960;8.542;2023-03-31T00:29:07;18.00;;;16.83;;
2019;SDS011;1014;51.960;8.542;2023-03-31T00:31:35;18.07;;;16.90;;
2019;SDS011;1014;51.960;8.542;2023-03-31T00:34:05;17.87;;;16.87;;
2019;SDS011;1014;51.960;8.542;2023-03-31T00:36:32;18.10;;;17.30;;
2019;SDS011;1014;51.960;8.542;2023-03-31T00:39:02;18.23;;;17.33;;
2019;SDS011;1014;51.960;8.542;2023-03-31T00:41:29;18.17;;;17.30;;
2019;SDS011;1014;51.960;8.542;2023-03-31T00:46:46;18.47;;;17.47;;
2019;SDS011;1014;51.960;8.542;2023-03-31T00:49:20;17.87;;;16.97;;
2019;SDS011;1014;51.960;8.542;2023-03-31T00:51:49;17.23;;;16.33;;
2019;SDS011;1014;51.960;8.542;2023-03-31T00:54:17;18.93;;;17.90;;
2019;SDS011;1014;51.960;8.542;2023-03-31T00:56:45;18.10;;;17.10;;
2019;SDS011;1014;51.960;8.542;2023-03-31T00:59:13;17.93;;;17.03;;
2019;SDS011;1014;51.960;8.542;2023-03-31T01:01:41;17.97;;;16.97;;
2019;SDS011;1014;51.960;8.542;2023-03-31T01:04:09;19.00;;;17.90;;
2019;SDS011;1014;51.960;8.542;2023-03-31T01:06:42;18.53;;;17.13;;
2019;SDS011;1014;51.960;8.542;2023-03-31T01:09:11;17.97;;;16.97;;
2019;SDS011;1014;51.960;8.542;2023-03-31T01:11:38;20.33;;;18.23;;
2019;SDS011;1014;51.960;8.542;2023-03-31T01:14:06;18.70;;;17.70;;
2019;SDS011;1014;51.960;8.542;2023-03-31T01:16:33;18.47;;;17.67;;
2019;SDS011;1014;51.960;8.542;2023-03-31T01:19:03;18.50;;;17.30;;
2019;SDS011;1014;51.960;8.542;2023-03-31T01:21:52;18.13;;;17.23;;
2019;SDS011;1014;51.960;8.542;2023-03-31T01:24:28;18.73;;;17.63;;
2019;SDS011;1014;51.960;8.542;2023-03-31T01:27:10;18.57;;;17.67;;
2019;SDS011;1014;51.960;8.542;2023-03-31T01:30:05;17.30;;;16.50;;
2019;SDS011;1014;51.960;8.542;2023-03-31T01:32:45;19.47;;;18.10;;
2019;SDS011;1014;51.960;8.542;2023-03-31T01:35:32;22.47;;;20.67;;
2019;SDS011;1014;51.960;8.542;2023-03-31T01:40:59;18.73;;;17.73;;
2019;SDS011;1014;51.960;8.542;2023-03-31T01:43:31;18.50;;;17.60;;
2019;SDS011;1014;51.960;8.542;2023-03-31T01:45:59;19.33;;;18.17;;
2019;SDS011;1014;51.960;8.542;2023-03-31T01:48:30;18.17;;;16.97;;
2019;SDS011;1014;51.960;8.542;2023-03-31T01:51:00;18.40;;;17.40;;
2019;SDS011;1014;51.960;8.542;2023-03-31T01:53:28;18.10;;;17.10;;
2019;SDS011;1014;51.960;8.542;2023-03-31T01:56:01;19.50;;;18.33;;
2019;SDS011;1014;51.960;8.542;2023-03-31T01:58:30;19.37;;;18.27;;
2019;SDS011;1014;51.960;8.542;2023-03-31T02:01:01;18.17;;;17.17;;
2019;SDS011;1014;51.960;8.542;2023-03-31T02:03:30;19.30;;;18.17;;
2019;SDS011;1014;51.960;8.542;2023-03-31T02:05:59;19.23;;;18.23;;
2019;SDS011;1014;51.960;8.542;2023-03-31T02:08:28;18.97;;;17.90;;
2019;SDS011;1014;51.960;8.542;2023-03-31T02:10:57;19.50;;;18.40;;
2019;SDS011;1014;51.960;8.542;2023-03-31T02:13:26;18.67;;;17.70;;
2019;SDS011;1014;51.960;8.542;2023-03-31T02:15:56;19.00;;;17.80;;
2019;SDS011;1014;51.960;8.542;2023-03-31T02:18:26;17.57;;;16.77;;
2019;SDS011;1014;51.960;8.542;2023-03-31T02:20:54;18.77;;;17.67;;
2019;SDS011;1014;51.960;8.542;2023-03-31T02:23:23;19.63;;;18.53;;
2019;SDS011;1014;51.960;8.542;2023-03-31T02:25:54;19.37;;;18.07;;
2019;SDS011;1014;51.960;8.542;2023-03-31T02:28:24;18.20;;;17.13;;
2019;SDS011;1014;51.960;8.542;2023-03-31T02:30:55;18.63;;;17.67;;
2019;SDS011;1014;51.960;8.542;2023-03-31T02:33:24;17.60;;;16.70;;
2019;SDS011;1014;51.960;8.542;2023-03-31T02:35:51;18.17;;;17.23;;
2019;SDS011;1014;51.960;8.542;2023-03-31T02:38:18;18.90;;;17.80;;
2019;SDS011;1014;51.960;8.542;2023-03-31T02:40:46;18.77;;;17.57;;
2019;SDS011;1014;51.960;8.542;2023-03-31T02:43:13;18.03;;;16.93;;
2019;SDS011;1014;51.960;8.542;2023-03-31T02:45:41;18.27;;;17.37;;
2019;SDS011;1014;51.960;8.542;2023-03-31T02:48:11;18.43;;;17.43;;
2019;SDS011;1014;51.960;8.542;2023-03-31T02:50:49;20.53;;;19.23;;
2019;SDS011;1014;51.960;8.542;2023-03-31T02:53:21;19.27;;;17.93;;
2019;SDS011;1014;51.960;8.542;2023-03-31T02:55:57;17.50;;;16.70;;
2019;SDS011;1014;51.960;8.542;2023-03-31T02:58:30;18.17;;;17.10;;
2019;SDS011;1014;51.960;8.542;2023-03-31T03:01:04;18.33;;;17.40;;
2019;SDS011;1014;51.960;8.542;2023-03-31T03:03:37;19.50;;;18.40;;
2019;SDS011;1014;51.960;8.542;2023-03-31T03:06:10;18.83;;;17.73;;
2019;SDS011;1014;51.960;8.542;2023-03-31T03:08:42;19.13;;;17.53;;
2019;SDS011;1014;51.960;8.542;2023-03-31T03:11:11;18.40;;;17.13;;
2019;SDS011;1014;51.960;8.542;2023-03-31T03:13:43;18.70;;;17.53;;
2019;SDS011;1014;51.960;8.542;2023-03-31T03:16:14;19.43;;;17.80;;
2019;SDS011;1014;51.960;8.542;2023-03-31T03:18:53;18.23;;;17.23;;
2019;SDS011;1014;51.960;8.542;2023-03-31T03:21:21;19.40;;;18.30;;
2019;SDS011;1014;51.960;8.542;2023-03-31T03:23:48;20.13;;;18.57;;
2019;SDS011;1014;51.960;8.542;2023-03-31T03:26:15;19.20;;;18.00;;
2019;SDS011;1014;51.960;8.542;2023-03-31T03:28:45;20.13;;;18.90;;
2019;SDS011;1014;51.960;8.542;2023-03-31T03:31:13;18.83;;;17.93;;
2019;SDS011;1014;51.960;8.542;2023-03-31T03:33:40;20.37;;;19.27;;
2019;SDS011;1014;51.960;8.542;2023-03-31T03:36:09;19.90;;;18.80;;
2019;SDS011;1014;51.960;8.542;2023-03-31T03:38:37;21.27;;;19.87;;
2019;SDS011;1014;51.960;8.542;2023-03-31T03:41:04;23.07;;;21.40;;
2019;SDS011;1014;51.960;8.542;2023-03-31T03:43:31;22.67;;;21.43;;
2019;SDS011;1014;51.960;8.542;2023-03-31T03:45:58;21.87;;;20.63;;
2019;SDS011;1014;51.960;8.542;2023-03-31T03:48:25;22.13;;;20.77;;
2019;SDS011;1014;51.960;8.542;2023-03-31T03:50:52;23.00;;;21.70;;
2019;SDS011;1014;51.960;8.542;2023-03-31T03:53:20;22.87;;;21.67;;
2019;SDS011;1014;51.960;8.542;2023-03-31T03:55:47;22.97;;;21.53;;
2019;SDS011;1014;51.960;8.542;2023-03-31T03:58:15;23.83;;;22.27;;
2019;SDS011;1014;51.960;8.542;2023-03-31T04:00:43;23.10;;;21.90;;
2019;SDS011;1014;51.960;8.542;2023-03-31T04:03:10;24.57;;;22.63;;
2019;SDS011;1014;51.960;8.542;2023-03-31T04:05:37;26.63;;;24.67;;
2019;SDS011;1014;51.960;8.542;2023-03-31T04:08:04;30.20;;;28.03;;
2019;SDS011;1014;51.960;8.542;2023-03-31T04:10:34;31.00;;;28.47;;
2019;SDS011;1014;51.960;8.542;2023-03-31T04:13:01;27.07;;;25.57;;
2019;SDS011;1014;51.960;8.542;2023-03-31T04:15:28;28.93;;;27.17;;
2019;SDS011;1014;51.960;8.542;2023-03-31T04:17:55;27.03;;;25.53;;
2019;SDS011;1014;51.960;8.542;2023-03-31T04:20:22;30.47;;;28.70;;
2019;SDS011;1014;51.960;8.542;2023-03-31T04:22:51;30.43;;;27.83;;
2019;SDS011;1014;51.960;8.542;2023-03-31T04:25:18;27.27;;;25.40;;
2019;SDS011;1014;51.960;8.542;2023-03-31T04:27:48;27.43;;;25.90;;
2019;SDS011;1014;51.960;8.542;2023-03-31T04:30:19;27.57;;;25.53;;
2019;SDS011;1014;51.960;8.542;2023-03-31T04:32:48;27.20;;;25.53;;
2019;SDS011;1014;51.960;8.542;2023-03-31T04:35:15;25.80;;;24.43;;
2019;SDS011;1014;51.960;8.542;2023-03-31T04:37:44;27.23;;;25.47;;
2019;SDS011;1014;51.960;8.542;2023-03-31T04:40:12;27.90;;;25.93;;
2019;SDS011;1014;51.960;8.542;2023-03-31T04:42:40;25.80;;;24.40;;
2019;SDS011;1014;51.960;8.542;2023-03-31T04:45:09;26.87;;;25.10;;
2019;SDS011;1014;51.960;8.542;2023-03-31T04:47:36;26.67;;;24.90;;
2019;SDS011;1014;51.960;8.542;2023-03-31T04:50:03;26.33;;;24.93;;
2019;SDS011;1014;51.960;8.542;2023-03-31T04:52:31;28.00;;;25.83;;
2019;SDS011;1014;51.960;8.542;2023-03-31T04:54:58;25.37;;;24.17;;
2019;SDS011;1014;51.960;8.542;2023-03-31T04:57:25;27.13;;;25.03;;
2019;SDS011;1014;51.960;8.542;2023-03-31T04:59:52;27.00;;;25.40;;
2019;SDS011;1014;51.960;8.542;2023-03-31T05:02:20;28.77;;;27.07;;
2019;SDS011;1014;51.960;8.542;2023-03-31T05:04:48;28.17;;;26.20;;
2019;SDS011;1014;51.960;8.542;2023-03-31T05:07:15;27.27;;;25.97;;
2019;SDS011;1014;51.960;8.542;2023-03-31T05:09:42;27.73;;;26.13;;
2019;SDS011;1014;51.960;8.542;2023-03-31T05:12:10;28.63;;;26.73;;
2019;SDS011;1014;51.960;8.542;2023-03-31T05:14:37;28.33;;;26.83;;
2019;SDS011;1014;51.960;8.542;2023-03-31T05:17:04;27.93;;;26.50;;
2019;SDS011;1014;51.960;8.542;2023-03-31T05:19:33;28.70;;;26.80;;
2019;SDS011;1014;51.960;8.542;2023-03-31T05:22:00;28.20;;;26.60;;
2019;SDS011;1014;51.960;8.542;2023-03-31T05:24:27;26.97;;;25.13;;
2019;SDS011;1014;51.960;8.542;2023-03-31T05:26:54;26.90;;;25.43;;
2019;SDS011;1014;51.960;8.542;2023-03-31T05:29:21;28.40;;;26.60;;
2019;SDS011;1014;51.960;8.542;2023-03-31T05:31:49;26.03;;;24.63;;
2019;SDS011;1014;51.960;8.542;2023-03-31T05:34:17;27.20;;;25.53;;
2019;SDS011;1014;51.960;8.542;2023-03-31T05:36:45;27.00;;;24.93;;
2019;SDS011;1014;51.960;8.542;2023-03-31T05:39:14;27.33;;;25.17;;
2019;SDS011;1014;51.960;8.542;2023-03-31T05:41:42;28.80;;;26.90;;
2019;SDS011;1014;51.960;8.542;2023-03-31T05:44:09;28.43;;;26.53;;
2019;SDS011;1014;51.960;8.542;2023-03-31T05:46:37;26.60;;;24.90;;
2019;SDS011;1014;51.960;8.542;2023-03-31T05:49:04;26.20;;;24.80;;
2019;SDS011;1014;51.960;8.542;2023-03-31T05:51:31;28.17;;;26.33;;
2019;SDS011;1014;51.960;8.542;2023-03-31T05:53:59;27.63;;;25.77;;
2019;SDS011;1014;51.960;8.542;2023-03-31T05:56:26;25.63;;;24.03;;
2019;SDS011;1014;51.960;8.542;2023-03-31T05:58:53;25.83;;;24.43;;
2019;SDS011;1014;51.960;8.542;2023-03-31T06:01:20;26.97;;;25.27;;
2019;SDS011;1014;51.960;8.542;2023-03-31T06:03:48;24.97;;;23.50;;
2019;SDS011;1014;51.960;8.542;2023-03-31T06:06:16;25.07;;;23.63;;
2019;SDS011;1014;51.960;8.542;2023-03-31T06:08:44;24.03;;;22.23;;
2019;SDS011;1014;51.960;8.542;2023-03-31T06:11:13;24.60;;;23.10;;
2019;SDS011;1014;51.960;8.542;2023-03-31T06:13:40;23.77;;;22.20;;
2019;SDS011;1014;51.960;8.542;2023-03-31T06:16:09;23.30;;;22.10;;
2019;SDS011;1014;51.960;8.542;2023-03-31T06:18:36;23.90;;;22.40;;
2019;SDS011;1014;51.960;8.542;2023-03-31T06:21:03;23.90;;;22.17;;
2019;SDS011;1014;51.960;8.542;2023-03-31T06:23:30;24.77;;;23.27;;
2019;SDS011;1014;51.960;8.542;2023-03-31T06:25:59;22.50;;;21.20;;
2019;SDS011;1014;51.960;8.542;2023-03-31T06:28:28;22.17;;;20.97;;
2019;SDS011;1014;51.960;8.542;2023-03-31T06:30:58;23.23;;;21.70;;
2019;SDS011;1014;51.960;8.542;2023-03-31T06:33:25;22.03;;;21.00;;
2019;SDS011;1014;51.960;8.542;2023-03-31T06:35:53;23.10;;;21.80;;
2019;SDS011;1014;51.960;8.542;2023-03-31T06:38:21;23.00;;;21.87;;
2019;SDS011;1014;51.960;8.542;2023-03-31T06:40:48;21.33;;;20.30;;
2019;SDS011;1014;51.960;8.542;2023-03-31T06:43:15;21.53;;;20.23;;
2019;SDS011;1014;51.960;8.542;2023-03-31T06:45:43;22.13;;;20.80;;
2019;SDS011;1014;51.960;8.542;2023-03-31T06:48:11;22.70;;;21.50;;
2019;SDS011;1014;51.960;8.542;2023-03-31T06:50:37;23.53;;;22.03;;
2019;SDS011;1014;51.960;8.542;2023-03-31T06:53:05;23.03;;;21.63;;
2019;SDS011;1014;51.960;8.542;2023-03-31T06:55:32;23.97;;;22.17;;
2019;SDS011;1014;51.960;8.542;2023-03-31T06:57:59;21.80;;;20.40;;
2019;SDS011;1014;51.960;8.542;2023-03-31T07:00:26;23.23;;;21.03;;
2019;SDS011;1014;51.960;8.542;2023-03-31T07:02:55;23.17;;;21.67;;
2019;SDS011;1014;51.960;8.542;2023-03-31T07:05:22;22.33;;;20.63;;
2019;SDS011;1014;51.960;8.542;2023-03-31T07:07:51;23.03;;;21.57;;
2019;SDS011;1014;51.960;8.542;2023-03-31T07:10:18;22.80;;;21.60;;
2019;SDS011;1014;51.960;8.542;2023-03-31T07:12:45;22.60;;;21.17;;
2019;SDS011;1014;51.960;8.542;2023-03-31T07:15:12;21.83;;;20.20;;
2019;SDS011;1014;51.960;8.542;2023-03-31T07:17:39;21.83;;;20.33;;
2019;SDS011;1014;51.960;8.542;2023-03-31T07:20:08;21.87;;;20.07;;
2019;SDS011;1014;51.960;8.542;2023-03-31T07:22:38;21.00;;;19.80;;
2019;SDS011;1014;51.960;8.542;2023-03-31T07:25:06;21.23;;;20.00;;
2019;SDS011;1014;51.960;8.542;2023-03-31T07:27:33;21.30;;;20.17;;
2019;SDS011;1014;51.960;8.542;2023-03-31T07:30:00;21.80;;;20.33;;
2019;SDS011;1014;51.960;8.542;2023-03-31T07:32:27;21.23;;;20.10;;
2019;SDS011;1014;51.960;8.542;2023-03-31T07:34:54;20.83;;;19.83;;
2019;SDS011;1014;51.960;8.542;2023-03-31T07:37:23;21.20;;;20.20;;
2019;SDS011;1014;51.960;8.542;2023-03-31T07:39:50;21.23;;;20.10;;
2019;SDS011;1014;51.960;8.542;2023-03-31T07:42:17;21.10;;;19.73;;
2019;SDS011;1014;51.960;8.542;2023-03-31T07:44:44;21.73;;;20.40;;
2019;SDS011;1014;51.960;8.542;2023-03-31T07:47:11;22.53;;;21.23;;
2019;SDS011;1014;51.960;8.542;2023-03-31T07:49:38;21.10;;;19.80;;
2019;SDS011;1014;51.960;8.542;2023-03-31T07:52:05;20.80;;;19.70;;
2019;SDS011;1014;51.960;8.542;2023-03-31T07:54:33;21.27;;;19.80;;
2019;SDS011;1014;51.960;8.542;2023-03-31T07:57:00;21.20;;;19.90;;
2019;SDS011;1014;51.960;8.542;2023-03-31T07:59:30;21.87;;;20.07;;
2019;SDS011;1014;51.960;8.542;2023-03-31T08:01:57;20.77;;;19.67;;
2019;SDS011;1014;51.960;8.542;2023-03-31T08:04:24;20.10;;;19.10;;
2019;SDS011;1014;51.960;8.542;2023-03-31T08:06:51;20.70;;;19.03;;
2019;SDS011;1014;51.960;8.542;2023-03-31T08:09:18;18.87;;;18.00;;
2019;SDS011;1014;51.960;8.542;2023-03-31T08:11:47;20.57;;;19.37;;
2019;SDS011;1014;51.960;8.542;2023-03-31T08:14:14;20.60;;;19.47;;
2019;SDS011;1014;51.960;8.542;2023-03-31T08:16:41;20.30;;;19.07;;
2019;SDS011;1014;51.960;8.542;2023-03-31T08:19:08;20.43;;;19.33;;
2019;SDS011;1014;51.960;8.542;2023-03-31T08:21:37;21.53;;;20.53;;
2019;SDS011;1014;51.960;8.542;2023-03-31T08:24:04;22.17;;;21.07;;
2019;SDS011;1014;51.960;8.542;2023-03-31T08:26:31;25.43;;;24.10;;
2019;SDS011;1014;51.960;8.542;2023-03-31T08:29:00;21.87;;;20.57;;
2019;SDS011;1014;51.960;8.542;2023-03-31T08:31:28;22.50;;;21.00;;
2019;SDS011;1014;51.960;8.542;2023-03-31T08:33:55;22.60;;;21.20;;
2019;SDS011;1014;51.960;8.542;2023-03-31T08:36:23;23.30;;;21.80;;
2019;SDS011;1014;51.960;8.542;2023-03-31T08:38:51;23.37;;;22.00;;
2019;SDS011;1014;51.960;8.542;2023-03-31T08:41:25;22.90;;;21.60;;
2019;SDS011;1014;51.960;8.542;2023-03-31T08:43:53;22.33;;;21.23;;
2019;SDS011;1014;51.960;8.542;2023-03-31T08:46:23;23.03;;;21.83;;
2019;SDS011;1014;51.960;8.542;2023-03-31T08:48:51;23.20;;;22.00;;
2019;SDS011;1014;51.960;8.542;2023-03-31T08:51:21;22.47;;;21.47;;
2019;SDS011;1014;51.960;8.542;2023-03-31T08:53:50;23.50;;;22.47;;
2019;SDS011;1014;51.960;8.542;2023-03-31T08:56:19;23.80;;;22.63;;
2019;SDS011;1014;51.960;8.542;2023-03-31T08:58:47;26.10;;;24.50;;
2019;SDS011;1014;51.960;8.542;2023-03-31T09:01:18;26.37;;;24.97;;
2019;SDS011;1014;51.960;8.542;2023-03-31T09:03:52;25.93;;;24.73;;
2019;SDS011;1014;51.960;8.542;2023-03-31T09:06:25;26.40;;;25.10;;
2019;SDS011;1014;51.960;8.542;2023-03-31T09:08:55;25.93;;;24.73;;
2019;SDS011;1014;51.960;8.542;2023-03-31T09:11:27;28.70;;;27.23;;
2019;SDS011;1014;51.960;8.542;2023-03-31T09:13:58;29.00;;;27.70;;
2019;SDS011;1014;51.960;8.542;2023-03-31T09:16:30;30.20;;;28.70;;
2019;SDS011;1014;51.960;8.542;2023-03-31T09:19:00;29.67;;;28.03;;
2019;SDS011;1014;51.960;8.542;2023-03-31T09:21:29;29.60;;;28.20;;
2019;SDS011;1014;51.960;8.542;2023-03-31T09:23:58;29.40;;;27.90;;
2019;SDS011;1014;51.960;8.542;2023-03-31T09:26:31;28.13;;;26.70;;
2019;SDS011;1014;51.960;8.542;2023-03-31T09:28:59;27.23;;;25.90;;
2019;SDS011;1014;51.960;8.542;2023-03-31T09:31:27;28.30;;;27.00;;
2019;SDS011;1014;51.960;8.542;2023-03-31T09:33:56;28.83;;;27.53;;
2019;SDS011;1014;51.960;8.542;2023-03-31T09:36:26;27.70;;;26.40;;
2019;SDS011;1014;51.960;8.542;2023-03-31T09:38:53;29.60;;;28.10;;
2019;SDS011;1014;51.960;8.542;2023-03-31T09:41:20;28.90;;;27.30;;
2019;SDS011;1014;51.960;8.542;2023-03-31T09:43:47;28.30;;;26.90;;
2019;SDS011;1014;51.960;8.542;2023-03-31T09:46:16;28.33;;;26.73;;
2019;SDS011;1014;51.960;8.542;2023-03-31T09:48:47;29.53;;;28.13;;
2019;SDS011;1014;51.960;8.542;2023-03-31T09:51:17;28.13;;;26.73;;
2019;SDS011;1014;51.960;8.542;2023-03-31T09:53:49;26.90;;;25.50;;
2019;SDS011;1014;51.960;8.542;2023-03-31T09:56:31;29.50;;;28.10;;
2019;SDS011;1014;51.960;8.542;2023-03-31T09:58:59;38.83;;;37.03;;
2019;SDS011;1014;51.960;8.542;2023-03-31T10:01:27;41.40;;;39.50;;
2019;SDS011;1014;51.960;8.542;2023-03-31T10:03:55;41.93;;;39.60;;
2019;SDS011;1014;51.960;8.542;2023-03-31T10:06:22;41.90;;;39.60;;
2019;SDS011;1014;51.960;8.542;2023-03-31T10:08:52;43.47;;;41.40;;
2019;SDS011;1014;51.960;8.542;2023-03-31T10:11:20;40.70;;;38.60;;
2019;SDS011;1014;51.960;8.542;2023-03-31T10:13:48;41.77;;;39.43;;
2019;SDS011;1014;51.960;8.542;2023-03-31T10:16:20;39.17;;;37.37;;
2019;SDS011;1014;51.960;8.542;2023-03-31T10:18:47;40.77;;;38.77;;
2019;SDS011;1014;51.960;8.542;2023-03-31T10:21:17;42.40;;;40.40;;
2019;SDS011;1014;51.960;8.542;2023-03-31T10:23:46;43.40;;;41.10;;
2019;SDS011;1014;51.960;8.542;2023-03-31T10:26:15;44.03;;;41.63;;
2019;SDS011;1014;51.960;8.542;2023-03-31T10:28:43;45.73;;;43.37;;
2019;SDS011;1014;51.960;8.542;2023-03-31T10:31:10;47.93;;;45.60;;
2019;SDS011;1014;51.960;8.542;2023-03-31T10:33:38;46.13;;;43.73;;
2019;SDS011;1014;51.960;8.542;2023-03-31T10:36:12;43.17;;;40.53;;
2019;SDS011;1014;51.960;8.542;2023-03-31T10:38:42;42.90;;;40.80;;
2019;SDS011;1014;51.960;8.542;2023-03-31T10:41:10;34.10;;;32.23;;
2019;SDS011;1014;51.960;8.542;2023-03-31T10:43:39;30.33;;;28.60;;
2019;SDS011;1014;51.960;8.542;2023-03-31T10:46:07;31.60;;;30.03;;
2019;SDS011;1014;51.960;8.542;2023-03-31T10:48:36;29.47;;;27.90;;
2019;SDS011;1014;51.960;8.542;2023-03-31T10:51:04;31.33;;;29.73;;
2019;SDS011;1014;51.960;8.542;2023-03-31T10:53:38;30.77;;;29.17;;
2019;SDS011;1014;51.960;8.542;2023-03-31T10:56:18;31.07;;;29.57;;
2019;SDS011;1014;51.960;8.542;2023-03-31T10:58:54;28.57;;;27.17;;
2019;SDS011;1014;51.960;8.542;2023-03-31T11:01:27;28.67;;;27.00;;
2019;SDS011;1014;51.960;8.542;2023-03-31T11:04:02;28.30;;;26.77;;
2019;SDS011;1014;51.960;8.542;2023-03-31T11:06:32;26.50;;;25.10;;
2019;SDS011;1014;51.960;8.542;2023-03-31T11:09:06;29.40;;;27.80;;
2019;SDS011;1014;51.960;8.542;2023-03-31T11:11:42;26.57;;;25.13;;
2019;SDS011;1014;51.960;8.542;2023-03-31T11:14:18;28.30;;;26.70;;
2019;SDS011;1014;51.960;8.542;2023-03-31T11:16:51;24.90;;;23.60;;
2019;SDS011;1014;51.960;8.542;2023-03-31T11:19:27;25.63;;;24.23;;
2019;SDS011;1014;51.960;8.542;2023-03-31T11:21:58;25.97;;;24.77;;
2019;SDS011;1014;51.960;8.542;2023-03-31T11:24:30;26.20;;;24.90;;
2019;SDS011;1014;51.960;8.542;2023-03-31T11:27:04;25.10;;;23.53;;
2019;SDS011;1014;51.960;8.542;2023-03-31T11:29:34;26.30;;;24.77;;
2019;SDS011;1014;51.960;8.542;2023-03-31T11:32:09;24.13;;;22.90;;
2019;SDS011;1014;51.960;8.542;2023-03-31T11:34:43;24.87;;;23.40;;
2019;SDS011;1014;51.960;8.542;2023-03-31T11:37:16;26.70;;;25.30;;
2019;SDS011;1014;51.960;8.542;2023-03-31T11:39:48;27.70;;;25.90;;
2019;SDS011;1014;51.960;8.542;2023-03-31T11:42:17;26.07;;;24.77;;
2019;SDS011;1014;51.960;8.542;2023-03-31T11:44:47;26.33;;;24.73;;
2019;SDS011;1014;51.960;8.542;2023-03-31T11:47:17;24.00;;;22.53;;
2019;SDS011;1014;51.960;8.542;2023-03-31T11:49:45;25.50;;;24.03;;
2019;SDS011;1014;51.960;8.542;2023-03-31T11:52:14;23.67;;;22.47;;
2019;SDS011;1014;51.960;8.542;2023-03-31T11:54:44;23.80;;;22.70;;
2019;SDS011;1014;51.960;8.542;2023-03-31T11:57:16;24.70;;;23.17;;
2019;SDS011;1014;51.960;8.542;2023-03-31T11:59:47;25.33;;;23.40;;
2019;SDS011;1014;51.960;8.542;2023-03-31T12:02:18;24.70;;;23.40;;
2019;SDS011;1014;51.960;8.542;2023-03-31T12:04:49;22.67;;;21.23;;
2019;SDS011;1014;51.960;8.542;2023-03-31T12:07:20;23.23;;;21.60;;
2019;SDS011;1014;51.960;8.542;2023-03-31T12:09:49;23.20;;;21.70;;
2019;SDS011;1014;51.960;8.542;2023-03-31T12:12:18;22.10;;;20.87;;
2019;SDS011;1014;51.960;8.542;2023-03-31T12:14:49;21.27;;;19.70;;
2019;SDS011;1014;51.960;8.542;2023-03-31T12:17:19;20.90;;;19.70;;
2019;SDS011;1014;51.960;8.542;2023-03-31T12:19:48;22.93;;;21.33;;
2019;SDS011;1014;51.960;8.542;2023-03-31T12:22:17;22.27;;;20.60;;
2019;SDS011;1014;51.960;8.542;2023-03-31T12:24:44;22.37;;;20.60;;
2019;SDS011;1014;51.960;8.542;2023-03-31T12:27:12;21.00;;;19.60;;
2019;SDS011;1014;51.960;8.542;2023-03-31T12:29:41;21.47;;;19.87;;
2019;SDS011;1014;51.960;8.542;2023-03-31T12:32:10;20.80;;;19.60;;
2019;SDS011;1014;51.960;8.542;2023-03-31T12:34:41;20.50;;;19.43;;
2019;SDS011;1014;51.960;8.542;2023-03-31T12:37:19;19.63;;;18.53;;
2019;SDS011;1014;51.960;8.542;2023-03-31T12:39:51;19.93;;;18.93;;
2019;SDS011;1014;51.960;8.542;2023-03-31T12:45:10;20.60;;;19.47;;
2019;SDS011;1014;51.960;8.542;2023-03-31T12:47:44;20.23;;;19.13;;
2019;SDS011;1014;51.960;8.542;2023-03-31T12:50:19;19.63;;;18.83;;
2019;SDS011;1014;51.960;8.542;2023-03-31T12:52:53;21.40;;;20.23;;
2019;SDS011;1014;51.960;8.542;2023-03-31T12:55:26;19.17;;;18.03;;
2019;SDS011;1014;51.960;8.542;2023-03-31T13:00:53;18.93;;;17.73;;
2019;SDS011;1014;51.960;8.542;2023-03-31T13:03:35;19.37;;;18.23;;
2019;SDS011;1014;51.960;8.542;2023-03-31T13:06:03;20.40;;;18.40;;
2019;SDS011;1014;51.960;8.542;2023-03-31T13:11:16;22.97;;;21.67;;
2019;SDS011;1014;51.960;8.542;2023-03-31T13:13:44;22.13;;;20.90;;
2019;SDS011;1014;51.960;8.542;2023-03-31T13:16:12;21.57;;;20.40;;
2019;SDS011;1014;51.960;8.542;2023-03-31T13:18:50;24.93;;;22.80;;
2019;SDS011;1014;51.960;8.542;2023-03-31T13:21:17;25.00;;;23.60;;
2019;SDS011;1014;51.960;8.542;2023-03-31T13:23:44;22.63;;;21.53;;
2019;SDS011;1014;51.960;8.542;2023-03-31T13:34:29;20.57;;;19.57;;
2019;SDS011;1014;51.960;8.542;2023-03-31T13:36:59;22.40;;;21.00;;
2019;SDS011;1014;51.960;8.542;2023-03-31T13:39:35;20.30;;;19.40;;
2019;SDS011;1014;51.960;8.542;2023-03-31T13:42:11;18.80;;;18.00;;
2019;SDS011;1014;51.960;8.542;2023-03-31T13:44:47;19.67;;;18.37;;
2019;SDS011;1014;51.960;8.542;2023-03-31T13:47:30;17.93;;;17.13;;
2019;SDS011;1014;51.960;8.542;2023-03-31T13:50:11;18.57;;;17.67;;
2019;SDS011;1014;51.960;8.542;2023-03-31T13:52:42;20.17;;;18.83;;
2019;SDS011;1014;51.960;8.542;2023-03-31T13:58:17;18.50;;;17.40;;
2019;SDS011;1014;51.960;8.542;2023-03-31T14:00:49;17.90;;;17.10;;
2019;SDS011;1014;51.960;8.542;2023-03-31T14:03:26;18.00;;;17.10;;
2019;SDS011;1014;51.960;8.542;2023-03-31T14:05:57;19.67;;;18.40;;
2019;SDS011;1014;51.960;8.542;2023-03-31T14:08:29;18.83;;;17.83;;
2019;SDS011;1014;51.960;8.542;2023-03-31T14:13:40;18.93;;;17.93;;
2019;SDS011;1014;51.960;8.542;2023-03-31T14:16:07;18.23;;;17.33;;
2019;SDS011;1014;51.960;8.542;2023-03-31T14:18:35;18.90;;;17.83;;
2019;SDS011;1014;51.960;8.542;2023-03-31T14:21:08;18.63;;;17.53;;
2019;SDS011;1014;51.960;8.542;2023-03-31T14:23:42;19.40;;;18.20;;
2019;SDS011;1014;51.960;8.542;2023-03-31T14:26:11;19.57;;;18.57;;
2019;SDS011;1014;51.960;8.542;2023-03-31T14:28:47;18.20;;;17.23;;
2019;SDS011;1014;51.960;8.542;2023-03-31T14:31:18;19.33;;;18.40;;
2019;SDS011;1014;51.960;8.542;2023-03-31T14:33:50;18.93;;;17.83;;
2019;SDS011;1014;51.960;8.542;2023-03-31T14:36:25;18.50;;;17.50;;
2019;SDS011;1014;51.960;8.542;2023-03-31T14:39:00;19.50;;;18.50;;
2019;SDS011;1014;51.960;8.542;2023-03-31T14:41:28;18.73;;;17.73;;
2019;SDS011;1014;51.960;8.542;2023-03-31T14:43:55;19.20;;;18.13;;
2019;SDS011;1014;51.960;8.542;2023-03-31T14:46:23;19.77;;;18.53;;
2019;SDS011;1014;51.960;8.542;2023-03-31T14:48:50;19.47;;;18.17;;
2019;SDS011;1014;51.960;8.542;2023-03-31T14:51:18;19.17;;;17.93;;
2019;SDS011;1014;51.960;8.542;2023-03-31T14:53:55;19.17;;;17.83;;
2019;SDS011;1014;51.960;8.542;2023-03-31T14:56:24;18.40;;;17.40;;
2019;SDS011;1014;51.960;8.542;2023-03-31T14:58:53;19.40;;;18.40;;
2019;SDS011;1014;51.960;8.542;2023-03-31T15:01:22;18.60;;;17.70;;
2019;SDS011;1014;51.960;8.542;2023-03-31T15:03:50;19.37;;;18.37;;
2019;SDS011;1014;51.960;8.542;2023-03-31T15:06:18;19.60;;;18.40;;
2019;SDS011;1014;51.960;8.542;2023-03-31T15:08:45;18.83;;;17.83;;
2019;SDS011;1014;51.960;8.542;2023-03-31T15:11:14;19.87;;;18.77;;
2019;SDS011;1014;51.960;8.542;2023-03-31T15:13:42;19.30;;;18.20;;
2019;SDS011;1014;51.960;8.542;2023-03-31T15:16:19;19.97;;;18.43;;
2019;SDS011;1014;51.960;8.542;2023-03-31T15:18:47;20.17;;;18.77;;
2019;SDS011;1014;51.960;8.542;2023-03-31T15:21:18;19.03;;;17.83;;
2019;SDS011;1014;51.960;8.542;2023-03-31T15:23:46;19.20;;;18.10;;
2019;SDS011;1014;51.960;8.542;2023-03-31T15:26:14;18.97;;;17.87;;
2019;SDS011;1014;51.960;8.542;2023-03-31T15:28:45;18.07;;;17.17;;
2019;SDS011;1014;51.960;8.542;2023-03-31T15:31:15;18.60;;;17.60;;